Time;durP1;ratioP1;P1;durP2;ratioP2;P2;SDS_P1;SDS_P2;PMS_P1;PMS_P2;Temp;Humidity;BMP_temperature;BMP_pressure;BME280_temperature;BME280_humidity;BME280_pressure;Samples;Min_cycle;Max_cycle;Signal;HPM_P1;HPM_P2
2023/08/05 00:01:00;;;;;;;9.50;6.10;;;12.40;95.40;;;;;;5044727;28;20574;-69
2023/08/05 00:03:25;;;;;;;13.23;5.73;;;12.40;95.60;;;;;;5045944;28;20225;-69
2023/08/05 00:05:51;;;;;;;9.93;6.00;;;12.50;95.90;;;;;;5043018;28;20481;-69
2023/08/05 00:08:17;;;;;;;10.10;7.03;;;12.50;95.80;;;;;;5041448;28;20037;-69
2023/08/05 00:10:44;;;;;;;9.20;6.43;;;12.50;95.70;;;;;;5048108;28;20040;-69
2023/08/05 00:13:09;;;;;;;14.13;6.40;;;12.50;95.90;;;;;;5042567;28;20048;-69
2023/08/05 00:15:35;;;;;;;11.20;5.53;;;12.50;95.90;;;;;;5048553;28;20279;-69
2023/08/05 00:18:01;;;;;;;9.30;5.93;;;12.50;96.00;;;;;;5048441;28;20041;-69
2023/08/05 00:20:26;;;;;;;7.07;4.83;;;12.50;95.90;;;;;;5043500;28;20146;-69
2023/08/05 00:22:52;;;;;;;7.57;5.70;;;12.50;95.90;;;;;;5037420;28;20405;-69
2023/08/05 00:25:18;;;;;;;9.13;5.50;;;12.50;95.90;;;;;;5030311;28;20064;-69
2023/08/05 00:27:44;;;;;;;9.17;5.00;;;12.40;95.80;;;;;;5046502;28;20088;-69
2023/08/05 00:30:10;;;;;;;8.57;5.17;;;12.40;95.80;;;;;;5042689;28;20042;-69
2023/08/05 00:32:36;;;;;;;8.03;4.87;;;12.40;95.90;;;;;;5045894;28;20068;-69
2023/08/05 00:35:06;;;;;;;11.13;5.37;;;12.50;96.40;;;;;;5041644;28;20296;-69
2023/08/05 00:37:33;;;;;;;7.97;5.43;;;12.50;96.20;;;;;;5033207;28;20287;-69
2023/08/05 00:39:59;;;;;;;10.53;5.33;;;12.60;96.80;;;;;;5042523;28;20791;-69
2023/08/05 00:42:28;;;;;;;8.73;5.50;;;12.60;96.60;;;;;;5040520;28;20453;-69
2023/08/05 00:44:54;;;;;;;9.33;5.07;;;12.60;96.50;;;;;;5034109;28;20279;-69
2023/08/05 00:47:21;;;;;;;9.67;4.90;;;12.70;96.50;;;;;;5047650;28;20271;-69
2023/08/05 00:49:51;;;;;;;8.90;5.60;;;12.70;96.60;;;;;;5036898;28;20291;-69
2023/08/05 00:52:20;;;;;;;8.23;4.80;;;12.80;96.50;;;;;;5045188;28;20291;-69
2023/08/05 00:54:46;;;;;;;9.33;5.43;;;12.80;96.50;;;;;;5041514;28;20391;-69
2023/08/05 00:57:12;;;;;;;11.63;5.23;;;12.90;96.80;;;;;;5031232;28;20757;-69
2023/08/05 00:59:39;;;;;;;8.23;4.63;;;12.90;96.90;;;;;;5044033;28;20052;-69
2023/08/05 01:02:05;;;;;;;6.07;4.27;;;12.90;97.00;;;;;;5025893;28;20327;-69
2023/08/05 01:04:31;;;;;;;8.83;4.83;;;13.00;96.90;;;;;;5044877;28;20352;-69
2023/08/05 01:06:58;;;;;;;9.20;4.30;;;13.00;96.90;;;;;;5037863;28;20280;-69
2023/08/05 01:09:24;;;;;;;6.83;4.50;;;13.10;96.80;;;;;;5043776;28;20514;-69
2023/08/05 01:11:50;;;;;;;9.90;4.63;;;13.10;97.00;;;;;;5044761;28;20350;-69
2023/08/05 01:14:16;;;;;;;10.57;4.83;;;13.10;96.90;;;;;;5049133;28;20287;-69
2023/08/05 01:16:41;;;;;;;8.03;4.37;;;13.10;97.10;;;;;;5046485;28;20033;-69
2023/08/05 01:19:34;;;;;;;8.57;4.10;;;13.20;97.10;;;;;;5034233;28;20048;-69
2023/08/05 01:21:59;;;;;;;6.73;4.20;;;13.20;97.00;;;;;;5002132;28;20134;-69
2023/08/05 01:24:30;;;;;;;8.53;4.80;;;13.20;97.10;;;;;;5005023;28;20431;-69
2023/08/05 01:26:56;;;;;;;7.03;4.33;;;13.20;97.10;;;;;;5004281;28;20119;-69
2023/08/05 01:29:23;;;;;;;8.20;4.90;;;13.20;97.20;;;;;;4997903;28;20641;-69
2023/08/05 01:31:51;;;;;;;10.90;5.00;;;13.20;97.30;;;;;;5002808;28;20361;-69
2023/08/05 01:34:17;;;;;;;11.23;5.33;;;13.30;97.30;;;;;;5010435;28;20296;-69
2023/08/05 01:36:42;;;;;;;11.93;6.00;;;13.30;97.20;;;;;;5002594;28;20818;-69
2023/08/05 01:39:08;;;;;;;10.80;5.83;;;13.30;97.20;;;;;;4992208;28;20039;-69
2023/08/05 01:41:34;;;;;;;12.27;5.87;;;13.40;97.10;;;;;;5002470;28;20555;-69
2023/08/05 01:43:59;;;;;;;13.33;6.40;;;13.40;97.10;;;;;;5006784;28;20127;-69
2023/08/05 01:46:25;;;;;;;9.87;6.10;;;13.50;97.10;;;;;;4994924;28;20565;-69
2023/08/05 01:48:51;;;;;;;9.93;5.80;;;13.50;97.20;;;;;;4992635;28;20501;-69
2023/08/05 01:51:16;;;;;;;13.87;6.10;;;13.50;97.20;;;;;;4996557;28;20041;-69
2023/08/05 01:53:43;;;;;;;15.07;6.80;;;13.60;97.50;;;;;;4993653;28;20393;-69
2023/08/05 01:56:08;;;;;;;11.33;6.80;;;13.60;97.50;;;;;;5005052;28;20482;-69
2023/08/05 01:58:34;;;;;;;11.37;5.90;;;13.60;97.50;;;;;;5011414;28;20370;-69
2023/08/05 02:01:00;;;;;;;13.20;6.63;;;13.70;97.40;;;;;;5010649;28;20068;-69
2023/08/05 02:03:25;;;;;;;12.10;6.27;;;13.70;97.40;;;;;;5014661;28;20037;-69
2023/08/05 02:05:51;;;;;;;13.13;6.53;;;13.70;97.60;;;;;;5005180;28;20045;-69
2023/08/05 02:08:17;;;;;;;11.43;6.60;;;13.80;97.40;;;;;;5009537;28;20409;-69
2023/08/05 02:10:43;;;;;;;10.03;6.20;;;13.80;97.50;;;;;;5002087;28;20115;-69
2023/08/05 02:13:08;;;;;;;11.27;6.27;;;13.80;97.60;;;;;;5008226;28;20494;-69
2023/08/05 02:15:34;;;;;;;9.53;6.30;;;13.90;97.50;;;;;;5010328;28;20664;-69
2023/08/05 02:18:00;;;;;;;8.40;6.03;;;13.90;97.50;;;;;;5010720;28;20136;-69
2023/08/05 02:20:25;;;;;;;10.13;6.43;;;13.90;97.50;;;;;;5024659;28;20056;-69
2023/08/05 02:22:51;;;;;;;10.10;5.97;;;14.00;97.40;;;;;;5047217;28;20052;-69
2023/08/05 02:25:17;;;;;;;11.13;6.53;;;14.00;97.40;;;;;;5045479;28;20033;-69
2023/08/05 02:27:42;;;;;;;10.63;6.63;;;14.00;97.50;;;;;;5027711;28;20094;-69
2023/08/05 02:30:08;;;;;;;14.57;6.90;;;14.00;97.40;;;;;;5037088;28;20064;-69
2023/08/05 02:32:34;;;;;;;10.93;6.27;;;14.00;97.50;;;;;;5033770;28;20447;-69
2023/08/05 02:35:00;;;;;;;12.70;6.37;;;14.00;97.50;;;;;;5042353;28;20148;-69
2023/08/05 02:37:25;;;;;;;12.00;5.90;;;14.00;97.60;;;;;;5042991;28;20047;-69
2023/08/05 02:39:51;;;;;;;10.23;5.73;;;14.00;97.60;;;;;;5030317;28;20077;-69
2023/08/05 02:42:17;;;;;;;13.03;6.53;;;14.00;97.40;;;;;;5039859;28;20512;-69
2023/08/05 02:44:42;;;;;;;14.73;6.27;;;14.00;97.50;;;;;;5039282;28;20276;-69
2023/08/05 02:47:08;;;;;;;9.93;5.57;;;14.00;97.70;;;;;;5038222;28;20042;-69
2023/08/05 02:49:34;;;;;;;7.67;5.97;;;14.00;97.60;;;;;;5044742;28;20036;-69
2023/08/05 02:52:00;;;;;;;13.20;6.47;;;14.00;97.60;;;;;;5033336;28;20048;-69
2023/08/05 02:54:26;;;;;;;13.13;7.03;;;14.00;97.70;;;;;;5031416;28;20515;-69
2023/08/05 02:56:52;;;;;;;10.07;5.87;;;14.00;97.80;;;;;;5030946;28;20047;-69
2023/08/05 02:59:18;;;;;;;12.43;5.97;;;14.00;97.70;;;;;;5044510;28;20284;-69
2023/08/05 03:01:43;;;;;;;10.80;5.83;;;14.00;97.90;;;;;;5046327;28;20122;-69
2023/08/05 03:04:09;;;;;;;7.97;5.33;;;14.00;97.90;;;;;;5037847;28;20045;-69
2023/08/05 03:06:35;;;;;;;12.13;4.93;;;14.00;98.00;;;;;;5042481;28;20035;-69
2023/08/05 03:09:01;;;;;;;11.77;5.73;;;14.00;97.90;;;;;;5036028;28;20037;-69
2023/08/05 03:11:30;;;;;;;11.17;5.10;;;14.00;97.90;;;;;;5041184;28;20049;-69
2023/08/05 03:13:56;;;;;;;8.73;4.63;;;14.00;97.80;;;;;;5026767;28;20113;-69
2023/08/05 03:16:21;;;;;;;10.27;4.90;;;14.00;97.90;;;;;;5045040;28;20951;-69
2023/08/05 03:18:47;;;;;;;9.60;5.10;;;14.10;97.80;;;;;;5044512;28;20040;-69
2023/08/05 03:21:13;;;;;;;9.33;5.40;;;14.10;97.70;;;;;;5033146;28;20497;-69
2023/08/05 03:23:39;;;;;;;7.80;4.60;;;14.00;97.60;;;;;;5044253;28;20109;-69
2023/08/05 03:26:04;;;;;;;10.90;5.10;;;14.00;97.50;;;;;;5040793;28;20045;-69
2023/08/05 03:28:30;;;;;;;9.30;5.40;;;14.00;97.50;;;;;;5044980;28;20491;-69
2023/08/05 03:30:56;;;;;;;11.20;5.60;;;14.00;97.50;;;;;;5034796;28;20444;-69
2023/08/05 03:33:22;;;;;;;11.13;4.57;;;14.00;97.50;;;;;;5042057;28;20123;-69
2023/08/05 03:35:48;;;;;;;6.60;4.20;;;14.00;97.50;;;;;;5035996;28;20378;-69
2023/08/05 03:38:14;;;;;;;8.67;4.60;;;14.00;97.50;;;;;;5036954;28;20575;-69
2023/08/05 03:40:40;;;;;;;9.07;4.40;;;14.00;97.60;;;;;;5041163;28;20135;-69
2023/08/05 03:43:06;;;;;;;9.83;4.83;;;14.00;97.40;;;;;;5042955;28;20394;-69
2023/08/05 03:45:31;;;;;;;9.30;4.97;;;14.00;97.40;;;;;;5032722;28;20081;-69
2023/08/05 03:47:57;;;;;;;11.57;5.37;;;14.00;97.40;;;;;;5027431;28;20036;-69
2023/08/05 03:50:23;;;;;;;8.37;5.07;;;14.00;97.60;;;;;;5042478;28;20045;-69
2023/08/05 03:52:49;;;;;;;11.13;5.60;;;14.00;97.50;;;;;;5045598;28;20049;-69
2023/08/05 03:55:15;;;;;;;10.23;5.63;;;14.00;97.70;;;;;;5032648;28;20090;-69
2023/08/05 03:57:41;;;;;;;7.27;5.10;;;14.00;97.80;;;;;;5044259;28;20056;-69
2023/08/05 04:00:11;;;;;;;10.63;5.23;;;14.00;97.80;;;;;;5035927;28;20292;-69
2023/08/05 04:02:37;;;;;;;6.83;4.90;;;14.00;97.70;;;;;;5048503;28;20520;-69
2023/08/05 04:05:04;;;;;;;10.37;5.40;;;14.10;97.80;;;;;;5044861;28;20280;-69
2023/08/05 04:07:33;;;;;;;10.07;5.93;;;14.10;97.80;;;;;;5048449;28;20076;-69
2023/08/05 04:09:59;;;;;;;9.17;4.60;;;14.10;97.80;;;;;;5027505;28;20613;-70
2023/08/05 04:12:26;;;;;;;8.77;5.23;;;14.10;97.90;;;;;;5040208;28;20295;-70
2023/08/05 04:14:53;;;;;;;12.07;4.77;;;14.10;97.90;;;;;;5040953;28;20143;-70
2023/08/05 04:17:20;;;;;;;7.13;4.83;;;14.20;97.80;;;;;;5044876;28;20334;-69
2023/08/05 04:19:47;;;;;;;7.27;4.93;;;14.20;97.90;;;;;;5048643;28;20669;-70
2023/08/05 04:22:13;;;;;;;11.30;5.47;;;14.20;98.10;;;;;;5043881;28;20308;-69
2023/08/05 04:24:41;;;;;;;8.30;4.97;;;14.20;98.10;;;;;;5030084;28;20280;-69
2023/08/05 04:27:08;;;;;;;10.23;5.50;;;14.30;98.00;;;;;;5064098;28;20041;-69
2023/08/05 04:29:34;;;;;;;8.70;5.10;;;14.30;98.10;;;;;;5042692;28;20675;-69
2023/08/05 04:32:00;;;;;;;8.90;5.30;;;14.30;98.00;;;;;;5018881;28;20780;-69
2023/08/05 04:34:25;;;;;;;11.10;5.40;;;14.30;98.10;;;;;;5028710;28;20367;-69
2023/08/05 04:36:52;;;;;;;11.10;5.53;;;14.30;98.00;;;;;;5017027;28;20040;-69
2023/08/05 04:39:21;;;;;;;10.40;5.40;;;14.40;98.10;;;;;;5035775;28;20143;-70
2023/08/05 04:41:47;;;;;;;8.20;5.60;;;14.40;98.00;;;;;;5044561;28;20319;-70
2023/08/05 04:44:13;;;;;;;11.00;5.70;;;14.40;98.10;;;;;;5034411;28;20280;-70
2023/08/05 04:46:39;;;;;;;8.93;5.43;;;14.40;98.00;;;;;;5038694;28;20295;-70
2023/08/05 04:49:07;;;;;;;9.63;5.67;;;14.40;98.00;;;;;;5036024;28;20132;-70
2023/08/05 04:51:34;;;;;;;9.87;5.20;;;14.40;98.00;;;;;;5032171;28;20040;-70
2023/08/05 04:54:00;;;;;;;9.77;5.80;;;14.50;97.90;;;;;;5036668;28;20362;-70
2023/08/05 04:56:26;;;;;;;9.77;5.33;;;14.50;97.80;;;;;;5040648;28;20288;-70
2023/08/05 04:58:52;;;;;;;8.43;5.43;;;14.50;97.70;;;;;;5045074;28;20256;-70
2023/08/05 05:01:18;;;;;;;8.30;5.03;;;14.50;97.70;;;;;;5032300;28;20644;-70
2023/08/05 05:03:48;;;;;;;7.90;4.90;;;14.50;97.80;;;;;;5037552;28;20320;-70
2023/08/05 05:06:14;;;;;;;8.13;5.33;;;14.60;97.80;;;;;;5035468;28;20041;-70
2023/08/05 05:08:40;;;;;;;6.53;4.63;;;14.60;97.70;;;;;;5028060;28;20272;-70
2023/08/05 05:11:07;;;;;;;7.73;4.03;;;14.70;97.80;;;;;;5043949;28;20310;-70
2023/08/05 05:13:33;;;;;;;11.17;4.17;;;14.70;97.60;;;;;;5048667;28;20107;-70
2023/08/05 05:16:01;;;;;;;7.80;4.30;;;14.70;97.50;;;;;;5041985;28;20374;-70
2023/08/05 05:18:26;;;;;;;9.00;4.27;;;14.70;97.20;;;;;;5031340;28;20363;-70
2023/08/05 05:20:54;;;;;;;8.00;3.67;;;14.80;97.10;;;;;;5035739;28;20372;-70
2023/08/05 05:23:20;;;;;;;9.20;4.07;;;14.80;96.90;;;;;;5023230;28;20454;-70
2023/08/05 05:25:46;;;;;;;7.60;3.60;;;14.90;96.70;;;;;;5047961;28;20369;-70
2023/08/05 05:28:12;;;;;;;8.23;4.00;;;14.90;96.60;;;;;;5034020;28;20069;-70
2023/08/05 05:30:38;;;;;;;4.60;3.27;;;15.00;96.60;;;;;;5035992;28;20122;-70
2023/08/05 05:33:03;;;;;;;7.83;3.50;;;15.20;96.30;;;;;;5037429;28;20044;-70
2023/08/05 05:35:29;;;;;;;6.40;3.00;;;15.30;95.90;;;;;;5042212;28;20828;-70
2023/08/05 05:37:55;;;;;;;6.63;2.80;;;15.40;95.30;;;;;;5045271;28;20037;-70
2023/08/05 05:40:22;;;;;;;5.63;2.80;;;15.50;94.60;;;;;;5038706;28;20103;-70
2023/08/05 05:42:50;;;;;;;5.17;2.80;;;15.60;94.60;;;;;;5023993;28;20040;-70
2023/08/05 05:45:17;;;;;;;8.20;3.10;;;15.70;94.10;;;;;;5031835;28;20279;-70
2023/08/05 05:47:44;;;;;;;6.90;2.80;;;15.70;93.90;;;;;;5043376;28;20334;-70
2023/08/05 05:50:10;;;;;;;6.27;2.90;;;15.80;93.50;;;;;;5040733;28;20287;-70
2023/08/05 05:52:36;;;;;;;6.20;2.57;;;15.80;92.90;;;;;;5041172;28;20353;-70
2023/08/05 05:55:05;;;;;;;4.93;2.83;;;15.90;92.90;;;;;;5048688;28;20280;-70
2023/08/05 05:57:30;;;;;;;3.93;2.80;;;15.90;92.90;;;;;;5053103;28;20454;-70
2023/08/05 05:59:56;;;;;;;7.27;2.83;;;16.00;91.70;;;;;;5047820;28;20290;-70
2023/08/05 06:02:22;;;;;;;3.53;2.50;;;16.00;91.30;;;;;;5047736;28;20639;-70
2023/08/05 06:04:48;;;;;;;4.27;2.50;;;16.10;91.50;;;;;;5044531;28;20037;-70
2023/08/05 06:07:14;;;;;;;4.43;2.23;;;16.10;91.30;;;;;;5035872;28;20489;-70
2023/08/05 06:09:39;;;;;;;4.57;2.97;;;16.20;90.90;;;;;;5021022;28;20087;-70
2023/08/05 06:12:07;;;;;;;5.00;2.50;;;16.30;90.80;;;;;;5043749;28;20041;-70
2023/08/05 06:14:33;;;;;;;6.60;3.03;;;16.40;90.40;;;;;;5027176;28;20133;-70
2023/08/05 06:16:59;;;;;;;3.53;2.67;;;16.50;89.90;;;;;;5046605;28;20640;-70
2023/08/05 06:19:25;;;;;;;6.20;3.10;;;16.60;89.50;;;;;;5049266;28;20344;-70
2023/08/05 06:21:51;;;;;;;4.60;2.67;;;16.70;89.30;;;;;;5035692;28;20072;-70
2023/08/05 06:24:16;;;;;;;5.13;3.20;;;16.90;89.30;;;;;;5049715;28;20033;-70
2023/08/05 06:26:42;;;;;;;6.33;2.70;;;17.00;88.60;;;;;;5035806;28;20045;-70
2023/08/05 06:29:08;;;;;;;4.03;2.53;;;17.00;87.10;;;;;;5039250;28;20173;-70
2023/08/05 06:31:33;;;;;;;4.00;2.60;;;17.10;87.40;;;;;;5035880;28;20040;-70
2023/08/05 06:33:59;;;;;;;4.83;2.60;;;17.20;87.30;;;;;;5047478;28;20045;-70
2023/08/05 06:36:25;;;;;;;5.93;2.67;;;17.20;86.30;;;;;;5037558;28;20080;-70
2023/08/05 06:38:50;;;;;;;8.20;2.77;;;17.20;86.90;;;;;;5038789;28;20045;-70
2023/08/05 06:41:16;;;;;;;4.07;2.27;;;17.30;86.60;;;;;;5044113;28;20526;-70
2023/08/05 06:43:42;;;;;;;7.20;2.33;;;17.30;86.60;;;;;;5042885;28;20055;-70
2023/08/05 06:46:07;;;;;;;6.33;2.17;;;17.40;86.10;;;;;;5048006;28;20041;-70
2023/08/05 06:48:33;;;;;;;4.60;2.47;;;17.40;85.50;;;;;;5042283;28;20045;-70
2023/08/05 06:50:59;;;;;;;5.27;2.33;;;17.40;85.40;;;;;;5049387;28;20119;-70
2023/08/05 06:53:25;;;;;;;4.77;2.40;;;17.40;85.50;;;;;;5032267;28;20033;-70
2023/08/05 06:56:01;;;;;;;5.87;3.30;;;17.40;85.80;;;;;;5044073;28;20052;-70
2023/08/05 06:58:27;;;;;;;5.57;2.20;;;17.50;85.40;;;;;;5030745;28;20290;-70
2023/08/05 07:00:53;;;;;;;4.13;2.57;;;17.50;85.60;;;;;;5032958;28;20613;-70
2023/08/05 07:03:18;;;;;;;6.57;2.23;;;17.60;85.60;;;;;;5034664;28;20048;-70
2023/08/05 07:05:44;;;;;;;6.57;2.27;;;17.70;85.40;;;;;;5046512;28;20044;-70
2023/08/05 07:08:10;;;;;;;6.60;2.20;;;17.90;85.10;;;;;;5044903;28;20037;-70
2023/08/05 07:10:36;;;;;;;4.33;2.07;;;18.00;84.50;;;;;;5029744;28;20041;-70
2023/08/05 07:13:05;;;;;;;9.10;2.40;;;18.20;84.00;;;;;;5038159;28;20073;-70
2023/08/05 07:15:36;;;;;;;3.43;2.03;;;18.30;83.30;;;;;;5038842;28;20059;-70
2023/08/05 07:18:03;;;;;;;6.70;2.30;;;18.40;83.50;;;;;;5024661;28;20139;-70
2023/08/05 07:20:29;;;;;;;4.63;2.20;;;18.40;82.70;;;;;;5046554;28;20592;-71
2023/08/05 07:22:54;;;;;;;6.13;2.07;;;18.50;82.30;;;;;;5050322;28;20037;-72
2023/08/05 07:25:20;;;;;;;3.60;1.93;;;18.50;81.90;;;;;;5046392;28;20139;-72
2023/08/05 07:27:46;;;;;;;4.73;1.97;;;18.50;81.00;;;;;;5045406;28;20048;-72
2023/08/05 07:30:12;;;;;;;5.60;2.10;;;18.50;80.80;;;;;;5025689;28;20393;-71
2023/08/05 07:32:40;;;;;;;3.80;1.80;;;18.60;81.50;;;;;;5041729;28;20041;-72
2023/08/05 07:35:07;;;;;;;4.47;1.83;;;18.70;81.10;;;;;;5041710;28;20056;-73
2023/08/05 07:37:34;;;;;;;4.63;2.10;;;18.80;80.80;;;;;;5025214;28;20053;-71
2023/08/05 07:40:00;;;;;;;5.00;1.77;;;18.80;80.30;;;;;;5046058;28;20041;-71
2023/08/05 07:42:27;;;;;;;3.53;1.63;;;18.80;80.00;;;;;;5028047;28;20394;-71
2023/08/05 07:44:53;;;;;;;4.90;2.27;;;18.90;80.00;;;;;;5051631;28;20052;-70
2023/08/05 07:47:19;;;;;;;5.07;2.10;;;18.90;80.10;;;;;;5045626;28;20045;-72
2023/08/05 07:49:45;;;;;;;4.17;2.10;;;18.90;79.80;;;;;;5024862;28;20040;-71
2023/08/05 07:52:11;;;;;;;3.67;1.87;;;18.90;80.10;;;;;;5027714;28;20315;-71
2023/08/05 07:54:36;;;;;;;4.60;2.00;;;19.00;79.20;;;;;;5043376;28;20037;-71
2023/08/05 07:57:03;;;;;;;4.03;1.90;;;19.00;79.30;;;;;;5046619;28;20040;-71
2023/08/05 07:59:30;;;;;;;8.07;2.00;;;19.00;79.50;;;;;;5047124;28;20033;-71
2023/08/05 08:01:57;;;;;;;6.80;2.67;;;19.10;79.70;;;;;;5045177;28;20105;-71
2023/08/05 08:04:23;;;;;;;5.90;1.87;;;19.20;79.50;;;;;;5043793;28;20037;-72
2023/08/05 08:06:48;;;;;;;3.30;1.73;;;19.20;78.60;;;;;;5028669;28;20132;-72
2023/08/05 08:09:18;;;;;;;4.63;2.17;;;19.20;78.40;;;;;;5043830;28;20068;-72
2023/08/05 08:11:44;;;;;;;4.13;2.57;;;19.20;78.40;;;;;;5025114;28;20062;-71
2023/08/05 08:14:09;;;;;;;4.57;2.07;;;19.20;78.30;;;;;;5022526;28;20037;-71
2023/08/05 08:16:35;;;;;;;5.10;2.13;;;19.30;78.60;;;;;;5035188;28;20165;-71
2023/08/05 08:19:04;;;;;;;4.50;2.10;;;19.40;77.60;;;;;;5011956;28;20493;-71
2023/08/05 08:21:30;;;;;;;6.87;2.37;;;19.40;77.20;;;;;;5005163;28;20041;-72
2023/08/05 08:23:55;;;;;;;5.83;2.60;;;19.50;77.30;;;;;;5006037;28;20497;-72
2023/08/05 08:26:21;;;;;;;6.00;2.13;;;19.60;77.40;;;;;;5008885;28;20072;-71
2023/08/05 08:28:47;;;;;;;5.40;1.90;;;19.70;77.10;;;;;;5011818;28;20037;-72
2023/08/05 08:31:13;;;;;;;4.03;1.70;;;19.70;76.70;;;;;;5010890;28;20567;-71
2023/08/05 08:33:38;;;;;;;5.57;2.00;;;19.80;76.90;;;;;;5009555;28;20084;-71
2023/08/05 08:36:04;;;;;;;5.07;2.00;;;19.80;76.30;;;;;;5003555;28;20058;-71
2023/08/05 08:38:30;;;;;;;7.23;2.13;;;19.90;75.50;;;;;;5009799;28;20060;-71
2023/08/05 08:40:59;;;;;;;4.20;1.93;;;19.80;75.00;;;;;;5024287;28;21573;-72
2023/08/05 08:43:27;;;;;;;6.60;2.17;;;19.90;74.20;;;;;;5027152;28;20125;-72
2023/08/05 08:45:54;;;;;;;4.27;2.00;;;19.90;75.00;;;;;;4984188;28;20495;-72
2023/08/05 08:48:20;;;;;;;3.83;1.80;;;20.00;74.70;;;;;;4993764;28;20045;-72
2023/08/05 08:50:48;;;;;;;3.13;1.70;;;20.20;74.40;;;;;;4993995;28;20605;-71
2023/08/05 08:53:14;;;;;;;5.67;2.00;;;20.40;74.40;;;;;;4996764;28;20049;-72
2023/08/05 08:55:41;;;;;;;5.07;1.63;;;20.40;73.30;;;;;;4998431;28;21473;-72
2023/08/05 08:58:07;;;;;;;6.43;1.73;;;20.40;73.30;;;;;;5004675;28;20124;-72
2023/08/05 09:00:34;;;;;;;4.53;1.80;;;20.50;74.00;;;;;;4995766;28;20115;-73
2023/08/05 09:03:03;;;;;;;7.93;2.27;;;20.60;73.40;;;;;;4999173;28;20044;-72
2023/08/05 09:05:35;;;;;;;5.27;2.10;;;20.70;73.10;;;;;;5002934;28;20050;-72
2023/08/05 09:08:03;;;;;;;3.70;1.93;;;20.80;73.30;;;;;;5003511;28;20038;-72
2023/08/05 09:10:29;;;;;;;4.90;2.20;;;21.00;72.80;;;;;;5001888;28;20041;-71
2023/08/05 09:12:57;;;;;;;6.63;2.40;;;21.20;72.70;;;;;;5014534;28;20559;-72
2023/08/05 09:15:32;;;;;;;5.13;2.27;;;21.30;71.70;;;;;;5013851;28;20075;-72
2023/08/05 09:17:58;;;;;;;3.42;2.13;;;21.30;70.10;;;;;;4987097;28;20065;-72
2023/08/05 09:20:24;;;;;;;7.30;2.17;;;21.20;70.40;;;;;;5023588;28;20569;-72
2023/08/05 09:22:55;;;;;;;7.13;2.67;;;21.10;70.60;;;;;;5043951;28;20102;-72
2023/08/05 09:25:22;;;;;;;6.43;2.00;;;21.00;70.90;;;;;;5047413;28;20047;-72
2023/08/05 09:27:50;;;;;;;6.70;2.20;;;20.90;71.00;;;;;;5036829;28;20055;-72
2023/08/05 09:30:17;;;;;;;6.00;1.93;;;21.00;71.50;;;;;;5035309;28;20056;-71
2023/08/05 09:32:45;;;;;;;5.57;2.30;;;21.00;70.50;;;;;;5039155;28;20128;-70
2023/08/05 09:35:11;;;;;;;10.97;2.63;;;21.00;71.40;;;;;;5032206;28;20119;-70
2023/08/05 09:37:40;;;;;;;4.57;2.37;;;21.20;71.30;;;;;;5033655;28;20025;-70
2023/08/05 09:40:21;;;;;;;4.33;1.93;;;21.40;69.80;;;;;;5034890;28;20056;-70
2023/08/05 09:42:50;;;;;;;5.17;2.30;;;21.40;69.40;;;;;;5040477;28;20045;-70
2023/08/05 09:45:17;;;;;;;4.93;1.80;;;21.60;70.50;;;;;;5038841;28;20053;-70
2023/08/05 09:47:46;;;;;;;4.27;1.87;;;21.70;70.60;;;;;;5043210;28;20404;-70
2023/08/05 09:50:16;;;;;;;3.93;2.10;;;21.80;70.30;;;;;;5063494;28;20044;-70
2023/08/05 09:52:43;;;;;;;6.50;2.27;;;21.90;69.20;;;;;;5042490;28;20048;-70
2023/08/05 09:55:17;;;;;;;5.97;2.00;;;21.90;68.90;;;;;;5039833;28;20041;-70
2023/08/05 09:57:43;;;;;;;3.97;2.22;;;22.00;68.10;;;;;;5025395;28;20385;-70
2023/08/05 10:00:11;;;;;;;3.13;2.00;;;22.00;67.60;;;;;;5013393;28;20091;-70
2023/08/05 10:02:41;;;;;;;4.53;1.73;;;21.80;67.10;;;;;;5034406;28;20047;-70
2023/08/05 10:05:09;;;;;;;5.00;1.97;;;21.60;67.90;;;;;;5041560;28;20133;-70
2023/08/05 10:07:37;;;;;;;4.93;2.33;;;21.70;68.80;;;;;;5037391;28;20351;-70
2023/08/05 10:10:07;;;;;;;3.53;2.00;;;21.80;69.10;;;;;;5027787;28;20037;-70
2023/08/05 10:12:41;;;;;;;5.47;1.80;;;22.00;67.80;;;;;;5032789;28;20037;-70
2023/08/05 10:15:09;;;;;;;;;;;22.10;67.80;;;;;;5015158;28;20124;-71
2023/08/05 10:17:40;;;;;;;5.60;1.90;;;22.20;66.50;;;;;;5025871;28;20572;-71
2023/08/05 10:20:07;;;;;;;2.90;1.73;;;22.30;67.10;;;;;;5040013;28;20088;-71
2023/08/05 10:22:33;;;;;;;3.17;1.67;;;22.30;67.20;;;;;;5037924;28;20059;-71
2023/08/05 10:25:00;;;;;;;5.43;1.93;;;22.40;67.00;;;;;;5033627;28;20033;-71
2023/08/05 10:27:35;;;;;;;4.67;1.73;;;22.50;66.40;;;;;;5030206;28;20037;-71
2023/08/05 10:30:17;;;;;;;4.53;2.00;;;22.60;64.00;;;;;;5039632;28;20040;-71
2023/08/05 10:32:54;;;;;;;6.67;2.13;;;22.60;64.50;;;;;;5036930;28;20041;-70
2023/08/05 10:35:40;;;;;;;5.43;2.20;;;22.60;64.30;;;;;;5042320;28;20128;-70
2023/08/05 10:38:11;;;;;;;7.13;1.87;;;22.60;63.80;;;;;;5046163;28;20110;-70
2023/08/05 10:40:43;;;;;;;3.30;1.90;;;22.60;64.40;;;;;;5032057;28;20047;-70
2023/08/05 10:43:12;;;;;;;2.97;1.47;;;22.40;64.70;;;;;;5039463;28;20687;-70
2023/08/05 10:45:43;;;;;;;4.63;1.97;;;22.10;64.40;;;;;;5032711;28;20127;-70
2023/08/05 10:48:09;;;;;;;3.30;1.90;;;22.00;65.00;;;;;;5030740;28;20484;-70
2023/08/05 10:50:39;;;;;;;6.10;2.10;;;22.00;65.60;;;;;;5024259;28;20403;-70
2023/08/05 10:53:07;;;;;;;4.63;2.23;;;22.00;65.60;;;;;;5043421;28;20036;-70
2023/08/05 10:55:48;;;;;;;5.23;2.10;;;22.00;65.80;;;;;;5031702;28;20104;-70
2023/08/05 10:58:15;;;;;;;4.00;1.90;;;22.00;65.20;;;;;;5031113;28;20092;-70
2023/08/05 11:00:42;;;;;;;3.43;2.00;;;22.10;65.60;;;;;;5038524;28;20471;-70
2023/08/05 11:03:46;;;;;;;5.23;2.60;;;22.00;66.30;;;;;;5044467;28;20069;-70
2023/08/05 11:06:13;;;;;;;4.40;2.40;;;21.90;66.30;;;;;;5031589;28;20056;-71
2023/08/05 11:08:43;;;;;;;3.70;1.90;;;21.80;67.30;;;;;;5027582;28;20041;-70
2023/08/05 11:11:10;;;;;;;3.80;2.10;;;21.90;67.50;;;;;;5039626;28;20124;-70
2023/08/05 11:13:42;;;;;;;3.37;2.17;;;22.00;67.50;;;;;;5048909;28;20052;-70
2023/08/05 11:16:13;;;;;;;3.70;2.20;;;22.10;66.40;;;;;;5044164;28;20045;-70
2023/08/05 11:18:41;;;;;;;4.77;2.50;;;22.20;66.20;;;;;;5033481;28;20132;-70
2023/08/05 11:21:10;;;;;;;3.87;2.47;;;22.40;66.10;;;;;;5044676;28;20490;-70
2023/08/05 11:23:37;;;;;;;4.40;2.53;;;22.40;65.30;;;;;;5037048;28;20132;-70
2023/08/05 11:26:04;;;;;;;4.00;2.17;;;22.40;65.50;;;;;;5042143;28;20653;-70
2023/08/05 11:28:31;;;;;;;3.43;2.50;;;22.30;66.30;;;;;;5033574;28;20527;-70
2023/08/05 11:30:57;;;;;;;4.87;3.00;;;22.30;66.60;;;;;;5047218;28;20126;-70
2023/08/05 11:33:22;;;;;;;5.90;2.20;;;22.30;67.10;;;;;;5052440;28;20068;-70
2023/08/05 11:35:52;;;;;;;5.00;3.37;;;22.30;66.60;;;;;;5048331;28;20037;-70
2023/08/05 11:38:24;;;;;;;4.70;2.90;;;22.30;66.50;;;;;;5023656;28;20049;-71
2023/08/05 11:40:57;;;;;;;5.80;2.80;;;22.30;66.80;;;;;;5033636;28;20954;-70
2023/08/05 11:43:23;;;;;;;7.77;3.73;;;22.40;67.00;;;;;;5036868;28;20171;-70
2023/08/05 11:45:51;;;;;;;4.07;2.40;;;22.50;66.90;;;;;;5038780;28;20466;-70
2023/08/05 11:48:25;;;;;;;4.90;2.67;;;22.60;66.80;;;;;;5040315;28;20489;-70
2023/08/05 11:50:58;;;;;;;7.40;2.93;;;22.60;67.00;;;;;;5013807;28;20398;-70
2023/08/05 11:53:28;;;;;;;5.33;2.90;;;22.60;66.70;;;;;;5043449;28;20047;-70
2023/08/05 11:55:54;;;;;;;4.73;2.60;;;22.60;66.80;;;;;;5040592;28;20049;-70
2023/08/05 11:58:23;;;;;;;7.13;2.77;;;22.40;67.20;;;;;;5038690;28;20041;-70
2023/08/05 12:00:57;;;;;;;5.77;3.07;;;22.40;68.10;;;;;;5045031;28;20497;-70
2023/08/05 12:03:25;;;;;;;5.53;3.42;;;22.30;68.00;;;;;;5037495;28;20057;-70
2023/08/05 12:05:59;;;;;;;6.30;2.70;;;22.40;68.00;;;;;;5041059;28;20040;-70
2023/08/05 12:08:39;;;;;;;2.90;2.22;;;22.40;66.90;;;;;;5049726;28;20040;-71
2023/08/05 12:11:08;;;;;;;4.40;2.50;;;22.40;66.00;;;;;;5022285;28;20072;-71
2023/08/05 12:13:35;;;;;;;3.70;2.30;;;22.20;64.70;;;;;;5036382;28;20042;-71
2023/08/05 12:16:01;;;;;;;3.60;2.37;;;22.00;65.10;;;;;;5041926;28;20040;-71
2023/08/05 12:18:27;;;;;;;3.17;2.23;;;22.00;65.40;;;;;;5035503;28;20057;-71
2023/08/05 12:20:53;;;;;;;2.40;1.70;;;21.90;65.60;;;;;;5034986;28;20545;-71
2023/08/05 12:23:19;;;;;;;3.10;2.10;;;21.80;66.10;;;;;;5027158;28;20045;-71
2023/08/05 12:25:45;;;;;;;4.10;2.43;;;21.80;66.10;;;;;;5041930;28;20539;-71
2023/08/05 12:28:11;;;;;;;3.13;1.90;;;21.70;65.80;;;;;;5043895;28;20072;-71
2023/08/05 12:30:37;;;;;;;3.13;1.80;;;21.60;65.40;;;;;;5040649;28;20175;-71
2023/08/05 12:33:03;;;;;;;3.70;1.70;;;21.60;65.40;;;;;;5020993;28;20041;-71
2023/08/05 12:35:28;;;;;;;2.73;1.97;;;21.60;65.80;;;;;;5035412;28;20053;-71
2023/08/05 12:37:54;;;;;;;2.87;1.70;;;21.60;65.80;;;;;;5027773;28;20036;-71
2023/08/05 12:40:20;;;;;;;2.40;1.60;;;21.60;64.60;;;;;;5044001;28;20045;-71
2023/08/05 12:42:46;;;;;;;5.30;2.03;;;21.50;65.10;;;;;;5045079;28;20037;-71
2023/08/05 12:45:11;;;;;;;3.30;1.47;;;21.40;65.50;;;;;;5025404;28;20433;-71